Time;durP1;ratioP1;P1;durP2;ratioP2;P2;SDS_P1;SDS_P2;PMS_P1;PMS_P2;Temp;Humidity;BMP_temperature;BMP_pressure;BME280_temperature;BME280_humidity;BME280_pressure;Samples;Min_cycle;Max_cycle;Signal;HPM_P1;HPM_P2
2023/07/24 00:00:45;;;;;;;20.17;11.70;;;23.70;99.90;;;;;;4948468;29;20055;-78
2023/07/24 00:03:13;;;;;;;16.15;10.40;;;23.70;99.90;;;;;;4962522;29;20044;-78
2023/07/24 00:05:41;;;;;;;17.73;11.20;;;23.70;99.90;;;;;;4957371;29;20047;-78
2023/07/24 00:08:12;;;;;;;17.77;11.48;;;23.70;99.90;;;;;;4942116;28;20436;-78
2023/07/24 00:10:39;;;;;;;20.42;11.77;;;23.70;99.90;;;;;;4955759;28;20040;-77
2023/07/24 00:13:07;;;;;;;20.27;11.77;;;23.70;99.90;;;;;;4958902;28;20055;-77
2023/07/24 00:15:35;;;;;;;15.98;10.85;;;23.60;99.90;;;;;;4956227;28;20167;-76
2023/07/24 00:18:02;;;;;;;20.80;12.40;;;23.50;99.90;;;;;;4956696;28;20102;-78
2023/07/24 00:20:32;;;;;;;21.92;11.50;;;23.50;99.90;;;;;;4963552;29;20051;-77
2023/07/24 00:23:03;;;;;;;;;;;23.60;99.90;;;;;;4961895;28;20126;-77
2023/07/24 00:25:34;;;;;;;20.15;11.85;;;23.60;99.90;;;;;;4960566;29;20345;-78
2023/07/24 00:28:02;;;;;;;19.50;12.02;;;23.50;99.90;;;;;;4957634;28;20131;-77
2023/07/24 00:30:30;;;;;;;22.70;12.77;;;23.50;99.90;;;;;;4959526;28;20047;-78
2023/07/24 00:32:57;;;;;;;22.33;12.45;;;23.40;99.90;;;;;;4951917;29;20400;-77
2023/07/24 00:35:25;;;;;;;20.42;12.98;;;23.50;99.90;;;;;;4950963;29;20091;-76
2023/07/24 00:37:52;;;;;;;25.27;13.57;;;23.60;99.90;;;;;;4957556;28;20055;-77
2023/07/24 00:40:20;;;;;;;27.17;13.05;;;23.70;99.90;;;;;;4968983;28;20137;-76
2023/07/24 00:42:48;;;;;;;18.90;11.88;;;23.50;99.90;;;;;;4974665;28;20066;-77
2023/07/24 00:45:15;;;;;;;24.08;11.52;;;23.20;99.90;;;;;;4958234;28;20058;-76
2023/07/24 00:47:44;;;;;;;16.67;11.05;;;23.20;99.90;;;;;;4977637;28;20074;-75
2023/07/24 00:50:13;;;;;;;17.50;10.90;;;23.40;99.90;;;;;;4953799;28;20051;-76
2023/07/24 00:52:42;;;;;;;19.73;11.05;;;23.50;99.90;;;;;;4978623;28;20051;-75
2023/07/24 00:55:12;;;;;;;21.70;11.45;;;23.30;99.90;;;;;;4959932;28;20055;-76
2023/07/24 00:57:40;;;;;;;21.92;11.07;;;23.00;99.90;;;;;;4972043;28;20069;-76
2023/07/24 01:00:08;;;;;;;35.05;11.32;;;22.60;99.90;;;;;;4972367;28;20082;-77
2023/07/24 01:02:38;;;;;;;23.23;12.68;;;22.90;99.90;;;;;;4958747;28;20498;-77
2023/07/24 01:05:07;;;;;;;18.98;10.27;;;22.80;99.90;;;;;;4973594;28;20470;-77
2023/07/24 01:07:34;;;;;;;18.58;9.95;;;22.80;99.90;;;;;;4975473;28;20462;-75
2023/07/24 01:10:02;;;;;;;16.48;10.13;;;22.90;99.90;;;;;;4972378;28;20102;-76
2023/07/24 01:12:51;;;;;;;19.30;11.20;;;22.80;99.90;;;;;;4973739;28;20097;-76
2023/07/24 01:15:31;;;;;;;20.67;10.25;;;22.80;99.90;;;;;;4964984;28;20550;-76
2023/07/24 01:18:07;;;;;;;17.85;11.30;;;22.80;99.90;;;;;;4974318;28;20070;-77
2023/07/24 01:20:38;;;;;;;17.27;10.23;;;22.60;99.90;;;;;;4943869;28;20086;-77
2023/07/24 01:23:42;;;;;;;22.02;11.38;;;22.70;99.90;;;;;;4970696;28;20083;-77
2023/07/24 01:26:10;;;;;;;17.38;10.38;;;22.70;99.90;;;;;;4971190;28;20078;-77
2023/07/24 01:28:42;;;;;;;21.88;11.20;;;22.60;99.90;;;;;;4955113;28;20055;-78
2023/07/24 01:31:34;;;;;;;22.90;12.57;;;22.60;99.90;;;;;;4928517;29;20051;-76
2023/07/24 01:34:27;;;;;;;18.77;9.90;;;22.70;99.90;;;;;;4940085;28;20206;-77
2023/07/24 01:37:13;;;;;;;18.63;10.40;;;22.60;99.90;;;;;;4959725;28;20051;-77
2023/07/24 01:39:57;;;;;;;21.55;10.15;;;22.70;99.90;;;;;;4955519;29;20058;-76
2023/07/24 01:42:27;;;;;;;20.88;9.60;;;22.70;99.90;;;;;;4939063;29;20051;-77
2023/07/24 01:45:11;;;;;;;19.00;10.48;;;22.80;99.90;;;;;;4952901;29;20431;-78
2023/07/24 01:47:41;;;;;;;21.45;10.25;;;22.70;99.90;;;;;;4952885;28;20070;-78
2023/07/24 01:50:11;;;;;;;22.20;10.55;;;22.60;99.90;;;;;;4935380;29;20122;-77
2023/07/24 01:52:39;;;;;;;17.33;9.32;;;22.50;99.90;;;;;;4943934;28;20134;-78
2023/07/24 01:55:07;;;;;;;18.83;8.93;;;22.60;99.90;;;;;;4956942;28;20055;-76
2023/07/24 01:57:34;;;;;;;24.75;10.27;;;22.70;99.90;;;;;;4943356;29;20108;-77
2023/07/24 02:00:02;;;;;;;20.58;9.57;;;22.50;99.90;;;;;;4939042;29;20126;-76
2023/07/24 02:02:32;;;;;;;18.03;9.97;;;22.30;99.90;;;;;;4962086;28;20115;-78
2023/07/24 02:05:00;;;;;;;21.10;9.73;;;22.40;99.90;;;;;;4945411;29;20054;-76
2023/07/24 02:07:27;;;;;;;16.98;9.82;;;22.40;99.90;;;;;;4951386;29;20048;-78
2023/07/24 02:09:55;;;;;;;17.50;10.27;;;22.40;99.90;;;;;;4952334;28;20059;-77
2023/07/24 02:12:22;;;;;;;21.52;10.45;;;22.40;99.90;;;;;;4937284;29;20500;-77
2023/07/24 02:14:51;;;;;;;18.08;9.95;;;22.50;99.90;;;;;;4938660;29;20582;-78
2023/07/24 02:17:20;;;;;;;20.13;10.23;;;22.50;99.90;;;;;;4938227;28;20055;-79
2023/07/24 02:19:47;;;;;;;18.58;9.77;;;22.10;99.90;;;;;;4941132;28;20071;-78
2023/07/24 02:22:15;;;;;;;18.40;9.85;;;22.00;99.90;;;;;;4953967;29;20134;-77
2023/07/24 02:24:42;;;;;;;17.25;9.80;;;22.00;99.90;;;;;;4957919;29;20074;-78
2023/07/24 02:27:14;;;;;;;17.13;9.95;;;22.10;99.90;;;;;;4954981;28;20464;-78
2023/07/24 02:29:41;;;;;;;15.07;8.77;;;22.20;99.90;;;;;;4955222;29;20075;-77
2023/07/24 02:32:09;;;;;;;19.40;9.00;;;22.30;99.90;;;;;;4958138;28;20083;-76
2023/07/24 02:34:36;;;;;;;15.98;9.70;;;22.40;99.90;;;;;;4938668;29;20070;-77
2023/07/24 02:37:03;;;;;;;13.77;8.45;;;22.40;99.90;;;;;;4938353;29;20055;-77
2023/07/24 02:39:31;;;;;;;14.38;9.27;;;22.50;99.90;;;;;;4950576;28;20053;-77
2023/07/24 02:41:58;;;;;;;15.48;8.98;;;22.40;99.90;;;;;;4947735;28;20067;-75
2023/07/24 02:44:25;;;;;;;17.75;9.73;;;22.30;99.90;;;;;;4962494;28;20065;-77
2023/07/24 02:46:52;;;;;;;18.15;10.90;;;22.30;99.90;;;;;;4949828;28;20479;-77
2023/07/24 02:49:19;;;;;;;22.17;11.00;;;22.40;99.90;;;;;;4975308;28;20126;-78
2023/07/24 02:51:49;;;;;;;21.90;11.18;;;22.30;99.90;;;;;;4973779;28;20115;-77
2023/07/24 02:54:16;;;;;;;21.35;11.77;;;22.20;99.90;;;;;;4956633;28;20478;-77
2023/07/24 02:56:43;;;;;;;22.10;12.23;;;22.20;99.90;;;;;;4971840;28;20051;-78
2023/07/24 02:59:11;;;;;;;17.83;11.00;;;22.10;99.90;;;;;;4955151;28;20147;-76
2023/07/24 03:01:38;;;;;;;23.02;10.90;;;22.20;99.90;;;;;;4954078;28;20051;-79
2023/07/24 03:04:06;;;;;;;23.17;11.75;;;22.20;99.90;;;;;;4955054;28;20066;-77
2023/07/24 03:06:34;;;;;;;30.30;13.70;;;22.00;99.90;;;;;;4954738;28;20050;-77
2023/07/24 03:09:02;;;;;;;30.88;15.43;;;21.80;99.90;;;;;;4974505;28;20050;-77
2023/07/24 03:11:29;;;;;;;34.22;17.80;;;21.60;99.90;;;;;;4973380;28;20070;-77
2023/07/24 03:13:56;;;;;;;33.80;16.98;;;21.60;99.90;;;;;;4956349;29;20051;-76
2023/07/24 03:16:23;;;;;;;29.85;15.80;;;21.50;99.90;;;;;;4972796;28;20050;-76
2023/07/24 03:18:51;;;;;;;28.77;16.15;;;21.70;99.90;;;;;;4974833;28;20050;-77
2023/07/24 03:21:20;;;;;;;30.58;16.25;;;21.90;99.90;;;;;;4973208;28;20053;-77
2023/07/24 03:23:47;;;;;;;25.50;14.50;;;21.80;99.90;;;;;;4950568;28;20051;-79
2023/07/24 03:26:15;;;;;;;28.00;13.57;;;21.80;99.90;;;;;;4954146;28;20047;-77
2023/07/24 03:28:43;;;;;;;24.63;13.88;;;21.70;99.90;;;;;;4966462;28;20101;-77
2023/07/24 03:31:10;;;;;;;28.83;14.43;;;21.70;99.90;;;;;;4928274;29;20061;-78
2023/07/24 03:33:42;;;;;;;31.65;13.23;;;21.60;99.90;;;;;;4941189;29;20555;-77
2023/07/24 03:36:10;;;;;;;19.70;12.13;;;21.70;99.90;;;;;;4957898;28;20526;-77
2023/07/24 03:38:38;;;;;;;16.52;9.82;;;21.60;99.90;;;;;;4956734;28;20080;-77
2023/07/24 03:41:09;;;;;;;18.70;10.18;;;21.40;99.90;;;;;;4956476;28;20075;-77
2023/07/24 03:43:37;;;;;;;18.55;9.60;;;21.60;99.90;;;;;;4953564;28;20114;-76
2023/07/24 03:46:06;;;;;;;17.45;9.20;;;21.70;99.90;;;;;;4957553;28;20134;-78
2023/07/24 03:48:34;;;;;;;16.25;9.60;;;21.80;99.90;;;;;;4968717;28;20055;-78
2023/07/24 03:51:02;;;;;;;18.27;10.27;;;21.90;99.90;;;;;;4963224;28;20055;-76
2023/07/24 03:53:30;;;;;;;20.52;9.27;;;21.90;99.90;;;;;;4940801;28;20051;-76
2023/07/24 03:55:59;;;;;;;16.67;10.32;;;22.00;99.90;;;;;;4955526;28;20559;-76
2023/07/24 03:58:27;;;;;;;18.95;10.15;;;21.90;99.90;;;;;;4939947;29;20050;-77
2023/07/24 04:00:57;;;;;;;14.88;8.77;;;21.70;99.90;;;;;;4948787;29;20062;-77
2023/07/24 04:03:39;;;;;;;17.25;9.52;;;21.70;99.90;;;;;;4952886;29;20055;-76
2023/07/24 04:06:21;;;;;;;16.25;9.90;;;21.70;99.90;;;;;;4967803;28;20474;-79
2023/07/24 04:08:50;;;;;;;21.05;11.95;;;21.70;99.90;;;;;;4949285;28;20083;-77
2023/07/24 04:11:32;;;;;;;28.33;15.43;;;21.60;99.90;;;;;;4944116;28;20146;-77
2023/07/24 04:14:01;;;;;;;31.83;16.10;;;21.60;99.90;;;;;;4943109;28;20507;-79
2023/07/24 04:16:28;;;;;;;31.50;15.38;;;21.60;99.90;;;;;;4951476;28;20051;-77
2023/07/24 04:18:58;;;;;;;28.92;15.50;;;21.70;99.90;;;;;;4963112;28;20090;-77
2023/07/24 04:21:43;;;;;;;32.10;15.45;;;21.80;99.90;;;;;;4962094;28;20414;-79
2023/07/24 04:24:14;;;;;;;32.38;16.58;;;21.70;99.90;;;;;;4943307;29;20051;-77
2023/07/24 04:26:47;;;;;;;35.47;15.50;;;21.70;99.90;;;;;;4943586;28;20051;-75
2023/07/24 04:29:16;;;;;;;25.40;14.10;;;21.60;99.90;;;;;;4943042;28;20129;-78
2023/07/24 04:31:46;;;;;;;22.20;11.45;;;21.50;99.90;;;;;;4952047;28;20090;-78
2023/07/24 04:34:13;;;;;;;21.27;10.73;;;21.60;99.90;;;;;;4947247;28;20065;-79
2023/07/24 04:36:41;;;;;;;19.45;9.93;;;21.60;99.90;;;;;;4958739;28;20517;-77
2023/07/24 04:39:10;;;;;;;23.95;10.68;;;21.60;99.90;;;;;;4953397;28;20102;-76
2023/07/24 04:41:51;;;;;;;23.58;11.00;;;21.70;99.90;;;;;;4942200;28;20063;-77
2023/07/24 04:44:23;;;;;;;21.50;11.45;;;21.90;99.90;;;;;;4939162;29;20447;-77
2023/07/24 04:47:05;;;;;;;20.08;11.25;;;21.90;99.90;;;;;;4949048;28;20514;-78
2023/07/24 04:49:46;;;;;;;22.13;11.75;;;21.90;99.90;;;;;;4926320;29;20063;-78
2023/07/24 04:52:13;;;;;;;24.95;13.32;;;21.90;99.90;;;;;;4939881;29;20055;-77
2023/07/24 04:54:41;;;;;;;26.55;13.13;;;21.80;99.90;;;;;;4965642;28;20069;-77
2023/07/24 04:57:08;;;;;;;21.95;12.57;;;21.80;99.90;;;;;;4968293;28;20082;-77
2023/07/24 04:59:35;;;;;;;25.60;13.32;;;21.90;99.90;;;;;;4946762;28;20047;-76
2023/07/24 05:02:03;;;;;;;104.55;65.20;;;21.90;99.90;;;;;;4958817;28;20402;-77
2023/07/24 05:04:30;;;;;;;66.43;43.30;;;22.00;99.90;;;;;;4974122;28;20083;-76
2023/07/24 05:06:58;;;;;;;52.40;31.67;;;22.10;99.90;;;;;;4972063;28;20051;-75
2023/07/24 05:09:27;;;;;;;31.17;19.95;;;22.20;99.90;;;;;;4947407;28;20144;-76
2023/07/24 05:11:55;;;;;;;27.83;15.95;;;22.30;99.90;;;;;;4956704;28;20053;-75
2023/07/24 05:14:23;;;;;;;22.63;12.87;;;22.30;99.90;;;;;;4951038;28;20458;-75
2023/07/24 05:16:51;;;;;;;19.98;11.70;;;22.20;99.90;;;;;;4938690;29;20079;-76
2023/07/24 05:19:20;;;;;;;26.45;12.45;;;22.10;99.90;;;;;;4940224;28;20042;-77
2023/07/24 05:21:49;;;;;;;20.27;11.57;;;22.20;99.90;;;;;;4952825;28;20061;-76
2023/07/24 05:24:17;;;;;;;24.05;12.57;;;22.20;99.90;;;;;;4945390;28;20051;-75
2023/07/24 05:26:44;;;;;;;26.55;11.32;;;22.40;99.90;;;;;;4974737;28;20050;-77
2023/07/24 05:29:12;;;;;;;55.65;34.65;;;22.50;99.90;;;;;;4951112;28;20119;-77
2023/07/24 05:31:39;;;;;;;68.63;43.97;;;22.20;99.90;;;;;;4969372;28;20051;-78
2023/07/24 05:34:06;;;;;;;20.13;12.93;;;22.20;99.90;;;;;;4959874;28;20065;-77
2023/07/24 05:36:33;;;;;;;20.50;10.88;;;22.20;99.90;;;;;;4974392;28;20125;-76
2023/07/24 05:39:01;;;;;;;22.00;11.77;;;22.30;99.90;;;;;;4953952;28;20067;-76
2023/07/24 05:41:28;;;;;;;21.27;11.88;;;22.40;99.90;;;;;;4974798;28;20063;-76
2023/07/24 05:43:56;;;;;;;23.20;12.57;;;22.60;99.90;;;;;;4957768;28;20054;-77
2023/07/24 05:46:24;;;;;;;19.65;11.20;;;22.40;99.90;;;;;;4951654;28;20047;-76
2023/07/24 05:48:52;;;;;;;22.90;11.32;;;22.30;99.90;;;;;;4973215;28;20050;-78
2023/07/24 05:51:19;;;;;;;96.43;65.15;;;22.50;99.90;;;;;;4973049;28;20051;-76
2023/07/24 05:53:47;;;;;;;86.90;57.00;;;22.60;99.90;;;;;;4976246;28;20084;-77
2023/07/24 05:56:14;;;;;;;27.55;16.20;;;22.70;99.90;;;;;;4947333;28;20492;-76
2023/07/24 05:58:41;;;;;;;35.13;17.48;;;22.70;99.90;;;;;;4960596;28;20562;-76
2023/07/24 06:01:10;;;;;;;34.22;16.52;;;22.70;99.90;;;;;;4961864;28;20047;-74
2023/07/24 06:03:38;;;;;;;23.92;13.63;;;23.00;99.90;;;;;;4952043;28;20483;-75
2023/07/24 06:06:06;;;;;;;26.45;14.50;;;22.90;99.90;;;;;;4969648;28;20058;-77
2023/07/24 06:08:36;;;;;;;27.70;13.85;;;22.90;99.90;;;;;;4966395;28;20047;-77
2023/07/24 06:11:07;;;;;;;30.70;16.05;;;23.10;99.90;;;;;;4953507;28;20506;-78
2023/07/24 06:13:34;;;;;;;21.67;12.00;;;23.30;99.90;;;;;;4977951;28;20075;-78
2023/07/24 06:16:21;;;;;;;20.88;11.35;;;23.20;99.90;;;;;;4974108;28;20049;-79
2023/07/24 06:18:50;;;;;;;22.05;12.07;;;23.20;99.90;;;;;;4972286;28;20038;-78
2023/07/24 06:21:18;;;;;;;24.73;13.07;;;23.20;99.90;;;;;;4952219;28;20048;-78
2023/07/24 06:23:45;;;;;;;24.77;13.02;;;23.10;99.90;;;;;;4970181;28;20066;-78
2023/07/24 06:26:21;;;;;;;26.00;14.82;;;23.10;99.90;;;;;;4957098;28;20061;-79
2023/07/24 06:28:50;;;;;;;24.98;15.35;;;23.20;99.90;;;;;;4964981;28;20476;-78
2023/07/24 06:31:34;;;;;;;29.00;16.00;;;23.40;99.90;;;;;;4955828;28;20038;-78
2023/07/24 06:34:06;;;;;;;26.15;15.40;;;23.60;99.90;;;;;;4968591;28;20050;-79
2023/07/24 06:36:34;;;;;;;28.77;15.65;;;23.60;99.90;;;;;;4961748;28;20047;-79
2023/07/24 06:39:02;;;;;;;29.58;15.90;;;23.60;99.90;;;;;;4964168;28;20114;-79
2023/07/24 06:41:29;;;;;;;24.42;15.38;;;23.60;99.90;;;;;;4968686;28;20063;-79
2023/07/24 06:43:58;;;;;;;32.28;16.40;;;23.70;99.90;;;;;;4957907;28;20074;-77
2023/07/24 06:46:34;;;;;;;32.95;17.15;;;23.80;99.90;;;;;;4945861;29;20057;-78
2023/07/24 06:49:19;;;;;;;37.58;17.73;;;23.80;99.90;;;;;;4959245;28;20399;-79
2023/07/24 06:51:46;;;;;;;39.92;19.38;;;23.90;99.90;;;;;;4979592;28;20081;-81
2023/07/24 06:54:14;;;;;;;41.85;22.77;;;23.90;99.90;;;;;;4955065;29;20034;-80
2023/07/24 06:56:42;;;;;;;38.28;21.58;;;23.80;99.90;;;;;;4967664;28;20051;-80
2023/07/24 06:59:10;;;;;;;43.03;21.90;;;23.90;99.90;;;;;;4979785;28;20051;-81
2023/07/24 07:01:38;;;;;;;48.55;21.83;;;24.00;99.90;;;;;;4957450;29;20061;-79
2023/07/24 07:04:06;;;;;;;38.65;20.75;;;24.10;99.90;;;;;;4950553;28;20566;-79
2023/07/24 07:06:35;;;;;;;41.28;20.90;;;24.20;99.90;;;;;;4969747;28;20058;-78
2023/07/24 07:09:06;;;;;;;38.65;19.95;;;24.20;99.90;;;;;;4967592;28;20133;-78
2023/07/24 07:11:33;;;;;;;31.98;17.70;;;24.40;99.90;;;;;;4956633;29;20400;-79
2023/07/24 07:14:00;;;;;;;34.25;17.70;;;24.50;99.90;;;;;;4958851;28;20430;-78
2023/07/24 07:16:29;;;;;;;42.45;17.75;;;24.50;99.90;;;;;;4967222;28;20061;-76
2023/07/24 07:18:58;;;;;;;29.75;16.10;;;24.40;99.90;;;;;;4980551;28;20511;-80
2023/07/24 07:21:26;;;;;;;29.13;15.77;;;24.50;99.90;;;;;;4959410;28;20065;-79
2023/07/24 07:23:54;;;;;;;27.40;15.00;;;24.60;99.90;;;;;;4948051;28;20657;-79
2023/07/24 07:26:22;;;;;;;27.92;14.88;;;24.60;99.90;;;;;;4950400;28;20051;-78
2023/07/24 07:28:50;;;;;;;29.70;14.60;;;24.60;99.90;;;;;;4943467;29;20059;-78
2023/07/24 07:31:18;;;;;;;28.17;14.55;;;24.50;99.90;;;;;;4974478;28;20055;-79
2023/07/24 07:33:46;;;;;;;24.05;13.20;;;24.60;99.90;;;;;;4973416;28;20070;-79
2023/07/24 07:36:13;;;;;;;25.75;13.73;;;24.70;99.90;;;;;;4962795;28;20043;-78
2023/07/24 07:38:50;;;;;;;24.42;12.60;;;24.60;99.90;;;;;;4966913;28;20047;-79
2023/07/24 07:41:18;;;;;;;23.33;13.52;;;24.70;99.90;;;;;;4952885;28;20054;-79
2023/07/24 07:43:45;;;;;;;25.92;13.10;;;24.80;99.90;;;;;;4949237;28;20051;-79
2023/07/24 07:46:14;;;;;;;20.13;11.63;;;24.90;99.90;;;;;;4980653;28;20098;-80
2023/07/24 07:48:42;;;;;;;20.73;12.13;;;25.00;99.90;;;;;;4981916;28;20145;-79
2023/07/24 07:51:12;;;;;;;25.13;13.38;;;25.00;99.90;;;;;;4964101;28;20078;-78
2023/07/24 07:53:40;;;;;;;21.33;12.13;;;24.90;99.90;;;;;;4976042;28;20054;-79
2023/07/24 07:56:07;;;;;;;23.58;11.80;;;25.00;99.90;;;;;;4968083;28;20051;-79
2023/07/24 07:58:35;;;;;;;19.48;11.60;;;25.00;99.90;;;;;;4966671;28;20043;-81
2023/07/24 08:01:06;;;;;;;19.10;10.10;;;25.00;99.90;;;;;;4949264;28;20069;-79
2023/07/24 08:03:34;;;;;;;18.63;9.63;;;25.20;99.90;;;;;;4942334;29;20074;-77
2023/07/24 08:06:04;;;;;;;16.92;10.40;;;25.30;99.90;;;;;;4964443;28;20063;-79
2023/07/24 08:08:33;;;;;;;17.60;10.77;;;25.20;99.90;;;;;;4957127;28;20106;-79
2023/07/24 08:11:07;;;;;;;16.38;10.27;;;25.20;99.90;;;;;;4965901;28;20111;-78
2023/07/24 08:13:36;;;;;;;15.63;8.90;;;25.20;99.90;;;;;;4955847;28;20054;-79
2023/07/24 08:16:04;;;;;;;16.15;9.45;;;25.30;99.90;;;;;;4959711;28;20439;-79
2023/07/24 08:18:31;;;;;;;15.13;8.88;;;25.40;99.90;;;;;;4947081;28;20102;-79
2023/07/24 08:21:00;;;;;;;16.35;9.23;;;25.40;99.90;;;;;;4979103;28;20073;-79
2023/07/24 08:23:28;;;;;;;15.57;8.57;;;25.50;99.90;;;;;;4947204;29;20106;-83
2023/07/24 08:25:55;;;;;;;12.85;7.88;;;25.50;99.90;;;;;;4942801;28;20134;-78
2023/07/24 08:28:24;;;;;;;13.68;9.43;;;25.40;99.90;;;;;;4948566;28;20047;-79
2023/07/24 08:30:58;;;;;;;18.23;9.10;;;25.60;99.90;;;;;;4959656;28;20042;-80
2023/07/24 08:33:27;;;;;;;15.15;8.30;;;25.70;99.90;;;;;;4976613;28;20544;-83
2023/07/24 08:36:05;;;;;;;15.57;8.65;;;25.80;99.90;;;;;;4976391;28;20042;-79
2023/07/24 08:38:36;;;;;;;15.57;8.68;;;25.80;99.90;;;;;;4963659;28;20074;-78
2023/07/24 08:41:14;;;;;;;12.75;7.93;;;25.80;99.90;;;;;;4978637;28;20110;-79
2023/07/24 08:43:43;;;;;;;14.30;8.73;;;25.90;99.90;;;;;;4977658;28;20114;-80
2023/07/24 08:46:11;;;;;;;14.55;8.73;;;26.00;99.90;;;;;;4968973;28;20050;-79
2023/07/24 08:48:41;;;;;;;13.80;8.55;;;26.10;99.90;;;;;;4966251;28;20050;-79
2023/07/24 08:51:38;;;;;;;16.73;9.13;;;26.20;99.90;;;;;;4965641;28;20049;-81
2023/07/24 08:54:11;;;;;;;18.27;8.38;;;26.40;99.90;;;;;;4955046;28;20074;-80
2023/07/24 08:56:41;;;;;;;15.82;9.90;;;26.50;99.90;;;;;;4967395;28;20081;-79
2023/07/24 08:59:13;;;;;;;16.40;9.40;;;26.50;99.90;;;;;;4983862;28;20141;-81
2023/07/24 09:01:41;;;;;;;17.65;9.35;;;26.50;99.90;;;;;;4972402;28;20055;-79
2023/07/24 09:04:08;;;;;;;16.70;9.13;;;26.60;99.90;;;;;;4951570;29;20392;-79
2023/07/24 09:06:37;;;;;;;17.13;9.32;;;26.80;99.90;;;;;;4977537;28;20097;-79
2023/07/24 09:09:15;;;;;;;15.48;8.73;;;26.80;99.90;;;;;;4980491;28;20154;-78
2023/07/24 09:11:51;;;;;;;15.82;9.32;;;26.80;99.90;;;;;;4944414;28;20105;-78
2023/07/24 09:14:33;;;;;;;16.27;8.82;;;26.90;99.90;;;;;;4960187;28;20061;-79
2023/07/24 09:17:08;;;;;;;14.95;9.00;;;27.10;99.90;;;;;;4973294;28;20055;-78
2023/07/24 09:19:37;;;;;;;16.33;8.80;;;27.20;99.90;;;;;;4961283;28;20450;-81
2023/07/24 09:22:13;;;;;;;19.05;9.68;;;27.40;99.90;;;;;;4976834;28;20097;-78
2023/07/24 09:24:57;;;;;;;17.77;9.05;;;27.50;99.90;;;;;;4977211;28;20403;-78
2023/07/24 09:27:28;;;;;;;15.52;9.68;;;27.50;99.90;;;;;;4958617;28;20054;-79
2023/07/24 09:29:58;;;;;;;13.38;9.40;;;27.60;99.90;;;;;;4960492;28;20054;-79
2023/07/24 09:32:27;;;;;;;16.40;8.75;;;27.80;99.90;;;;;;4958420;28;20044;-79
2023/07/24 09:34:55;;;;;;;14.05;8.70;;;27.90;99.90;;;;;;4966765;28;20050;-79
2023/07/24 09:37:32;;;;;;;15.60;9.80;;;28.00;99.90;;;;;;4962007;28;20407;-79
2023/07/24 09:40:03;;;;;;;14.38;9.20;;;28.10;99.80;;;;;;4976799;28;20054;-79
2023/07/24 09:42:35;;;;;;;13.95;8.90;;;28.20;99.20;;;;;;4956834;28;20051;-80
2023/07/24 09:45:27;;;;;;;14.50;8.90;;;28.40;98.80;;;;;;4953924;28;20055;-80
2023/07/24 09:47:59;;;;;;;15.50;9.00;;;28.40;97.70;;;;;;4941174;29;20499;-79
2023/07/24 09:50:37;;;;;;;16.60;8.90;;;28.40;97.50;;;;;;4954659;29;20130;-79
2023/07/24 09:53:09;;;;;;;13.98;7.85;;;28.60;96.70;;;;;;4957964;28;20071;-79
2023/07/24 09:55:47;;;;;;;13.60;7.18;;;28.80;93.80;;;;;;4969435;28;20578;-78
2023/07/24 09:58:21;;;;;;;13.48;7.40;;;28.80;93.10;;;;;;4957591;28;20050;-78
2023/07/24 10:00:49;;;;;;;15.55;8.38;;;29.00;92.50;;;;;;4960170;28;20062;-79
2023/07/24 10:03:18;;;;;;;13.02;7.70;;;29.10;93.30;;;;;;4976249;28;20074;-79
2023/07/24 10:05:46;;;;;;;13.95;7.80;;;29.30;93.30;;;;;;4978702;28;20560;-78
2023/07/24 10:08:18;;;;;;;13.60;7.85;;;29.20;91.90;;;;;;4960999;28;20050;-79
2023/07/24 10:10:50;;;;;;;11.63;6.63;;;29.10;88.90;;;;;;4948967;28;20051;-78
2023/07/24 10:13:21;;;;;;;12.07;6.85;;;29.20;86.80;;;;;;4964869;28;20130;-78
2023/07/24 10:15:49;;;;;;;11.20;6.90;;;29.20;85.50;;;;;;4979379;28;20075;-77
2023/07/24 10:18:27;;;;;;;12.40;6.97;;;29.30;85.60;;;;;;4948343;28;20612;-81
2023/07/24 10:21:04;;;;;;;11.77;7.82;;;29.60;87.50;;;;;;4963679;28;20055;-78
2023/07/24 10:23:40;;;;;;;15.63;7.65;;;29.60;86.00;;;;;;4963304;28;20039;-79
2023/07/24 10:26:08;;;;;;;15.15;7.88;;;29.60;86.90;;;;;;4979143;28;20048;-80
2023/07/24 10:28:41;;;;;;;13.35;7.47;;;29.80;86.70;;;;;;4964356;28;20039;-79
2023/07/24 10:31:27;;;;;;;12.88;8.27;;;29.90;85.00;;;;;;4961933;28;20451;-78
2023/07/24 10:34:03;;;;;;;17.30;7.55;;;30.10;85.30;;;;;;4962626;28;20058;-77
2023/07/24 10:36:45;;;;;;;14.25;7.90;;;30.10;83.50;;;;;;4955588;28;20069;-78
2023/07/24 10:39:47;;;;;;;15.40;8.40;;;30.40;85.50;;;;;;4973074;28;20130;-80
2023/07/24 10:42:24;;;;;;;13.85;8.70;;;30.60;86.30;;;;;;4987069;28;20066;-79
2023/07/24 10:45:07;;;;;;;13.65;7.82;;;30.80;86.40;;;;;;4933433;29;20051;-78
2023/07/24 10:47:37;;;;;;;14.20;6.95;;;30.80;83.50;;;;;;4940671;28;20122;-78
2023/07/24 10:50:08;;;;;;;14.25;8.10;;;30.60;84.20;;;;;;4991339;28;20050;-78
2023/07/24 10:52:37;;;;;;;14.93;6.57;;;30.80;80.90;;;;;;4977723;28;20051;-79
2023/07/24 10:55:05;;;;;;;14.15;6.85;;;30.90;80.50;;;;;;4986950;28;20510;-78
2023/07/24 10:57:33;;;;;;;12.88;7.45;;;31.00;80.80;;;;;;4968395;28;20414;-80
2023/07/24 11:00:00;;;;;;;12.48;7.05;;;31.00;81.90;;;;;;4962576;28;20109;-79
2023/07/24 11:02:30;;;;;;;13.93;7.40;;;31.00;78.40;;;;;;4981523;28;20465;-79
2023/07/24 11:05:00;;;;;;;11.55;6.68;;;30.90;75.10;;;;;;4979899;28;20487;-79
2023/07/24 11:07:32;;;;;;;10.98;6.05;;;30.80;74.40;;;;;;4948685;28;20415;-80
2023/07/24 11:10:00;;;;;;;11.48;6.05;;;30.80;73.70;;;;;;4949928;29;20506;-80
2023/07/24 11:12:51;;;;;;;11.65;6.13;;;30.90;74.10;;;;;;4979101;28;20039;-80
2023/07/24 11:15:28;;;;;;;14.07;6.80;;;31.10;73.60;;;;;;4970432;28;20543;-80
2023/07/24 11:17:56;;;;;;;9.63;6.10;;;31.20;73.80;;;;;;4963647;28;20063;-79
2023/07/24 11:20:24;;;;;;;11.75;6.68;;;31.50;72.60;;;;;;4950048;28;20042;-79
2023/07/24 11:22:51;;;;;;;14.77;6.60;;;31.60;72.80;;;;;;4980168;28;20082;-80
2023/07/24 11:25:19;;;;;;;13.23;6.75;;;31.70;72.00;;;;;;4966099;28;20402;-79
2023/07/24 11:27:47;;;;;;;14.10;6.85;;;31.80;72.90;;;;;;4960320;28;20051;-79
2023/07/24 11:30:30;;;;;;;10.85;6.57;;;31.90;72.00;;;;;;4973389;28;20207;-81
2023/07/24 11:33:22;;;;;;;13.00;5.53;;;31.90;71.50;;;;;;4971236;28;20053;-80
2023/07/24 11:35:49;;;;;;;11.15;6.28;;;31.60;67.60;;;;;;4982918;28;20078;-80
2023/07/24 11:38:17;;;;;;;10.73;5.63;;;31.60;69.10;;;;;;4964923;28;20090;-80
2023/07/24 11:40:45;;;;;;;10.75;5.70;;;31.60;70.30;;;;;;4945214;28;20142;-80
2023/07/24 11:43:18;;;;;;;10.35;5.82;;;31.70;69.00;;;;;;4972404;28;20545;-80
2023/07/24 11:45:51;;;;;;;11.38;6.82;;;31.90;69.90;;;;;;4960783;28;20098;-80
2023/07/24 11:48:24;;;;;;;9.80;5.40;;;32.10;68.50;;;;;;4960354;28;20138;-78
2023/07/24 11:50:55;;;;;;;11.70;5.70;;;31.90;67.10;;;;;;4971978;28;20057;-80
2023/07/24 11:53:26;;;;;;;13.43;5.53;;;31.80;66.60;;;;;;4973297;28;20082;-79
2023/07/24 11:56:03;;;;;;;14.45;5.93;;;32.00;66.10;;;;;;4956202;28;20058;-79
2023/07/24 11:58:32;;;;;;;13.10;5.85;;;32.10;66.50;;;;;;4970112;28;20061;-79
2023/07/24 12:01:13;;;;;;;11.13;6.07;;;32.10;66.60;;;;;;4956334;28;20057;-79
2023/07/24 12:03:41;;;;;;;12.45;6.55;;;32.30;66.70;;;;;;4963536;28;20054;-79
2023/07/24 12:06:16;;;;;;;12.85;5.63;;;32.50;66.10;;;;;;4947913;28;20053;-79
2023/07/24 12:08:45;;;;;;;10.70;5.93;;;32.70;65.60;;;;;;4981299;28;20043;-80
2023/07/24 12:11:20;;;;;;;10.15;5.20;;;32.80;65.60;;;;;;4962699;28;20054;-80
2023/07/24 12:13:53;;;;;;;11.48;5.95;;;32.80;66.50;;;;;;4947980;29;20541;-79
2023/07/24 12:16:21;;;;;;;11.70;6.43;;;32.90;63.50;;;;;;4967637;28;20082;-81
2023/07/24 12:18:50;;;;;;;10.50;5.17;;;33.00;62.10;;;;;;4951519;28;20341;-80
2023/07/24 12:21:18;;;;;;;11.82;5.05;;;32.90;61.30;;;;;;4947931;28;20051;-80
2023/07/24 12:23:49;;;;;;;10.30;5.43;;;32.80;59.50;;;;;;4954332;28;20059;-80
2023/07/24 12:26:20;;;;;;;10.82;5.18;;;32.80;58.90;;;;;;4955782;28;20046;-80
2023/07/24 12:28:49;;;;;;;10.10;5.18;;;32.80;59.60;;;;;;4965844;28;20082;-81
2023/07/24 12:31:16;;;;;;;8.82;4.25;;;32.90;61.00;;;;;;4963521;28;20055;-78
2023/07/24 12:33:46;;;;;;;9.82;4.88;;;33.20;60.40;;;;;;4947532;29;20388;-79
2023/07/24 12:36:28;;;;;;;10.88;5.28;;;33.30;60.20;;;;;;4968180;28;20047;-81
2023/07/24 12:38:58;;;;;;;10.93;5.07;;;33.50;60.60;;;;;;4980071;28;20054;-80
2023/07/24 12:41:37;;;;;;;12.43;5.00;;;33.60;58.90;;;;;;4974123;28;20042;-80
2023/07/24 12:44:19;;;;;;;10.23;4.90;;;33.40;55.90;;;;;;4954750;28;20055;-80
2023/07/24 12:46:46;;;;;;;10.57;5.40;;;33.50;56.90;;;;;;4954587;28;20091;-80
2023/07/24 12:49:23;;;;;;;11.48;4.88;;;33.60;57.80;;;;;;4963463;28;20047;-79